Time;durP1;ratioP1;P1;durP2;ratioP2;P2;SDS_P1;SDS_P2;PMS_P1;PMS_P2;Temp;Humidity;BMP_temperature;BMP_pressure;BME280_temperature;BME280_humidity;BME280_pressure;Samples;Min_cycle;Max_cycle;Signal;HPM_P1;HPM_P2
2021/11/14 00:00:12;;;;;;;;;;;;;;;;;;2115384;28;19924;-46
2021/11/14 00:01:13;;;;;;;;;;;;;;;;;;2116336;28;20380;-47
2021/11/14 00:02:14;;;;;;;;;;;;;;;;;;2122461;27;19923;-48
2021/11/14 00:03:15;;;;;;;;;;;;;;;;;;2122442;28;19930;-46
2021/11/14 00:04:16;;;;;;;;;;;;;;;;;;2122170;28;19971;-46
2021/11/14 00:05:17;;;;;;;;;;;;;;;;;;2126313;27;19923;-46
2021/11/14 00:06:20;;;;;;;;;;;;;;;;;;2132441;27;19927;-48
2021/11/14 00:07:21;;;;;;;;;;;;;;;;;;2126867;27;20014;-47
2021/11/14 00:08:22;;;;;;;;;;;;;;;;;;2129693;27;20321;-47
2021/11/14 00:09:23;;;;;;;;;;;;;;;;;;2132657;27;19930;-48
2021/11/14 00:10:24;;;;;;;;;;;;;;;;;;2127808;27;19927;-47
2021/11/14 00:11:25;;;;;;;;;;;;;;;;;;2118700;27;20377;-47
2021/11/14 00:12:25;;;;;;;;;;;;;;;;;;2115433;28;20368;-47
2021/11/14 00:13:26;;;;;;;;;;;;;;;;;;2120175;27;20015;-47
2021/11/14 00:14:27;;;;;;;;;;;;;;;;;;2116534;28;20284;-47
2021/11/14 00:15:28;;;;;;;;;;;;;;;;;;2115476;28;19924;-47
2021/11/14 00:16:29;;;;;;;;;;;;;;;;;;2121181;27;20396;-47
2021/11/14 00:17:30;;;;;;;;;;;;;;;;;;2116976;27;20368;-47
2021/11/14 00:18:31;;;;;;;;;;;;;;;;;;2115368;28;19969;-47
2021/11/14 00:19:31;;;;;;;;;;;;;;;;;;2118088;27;20280;-47
2021/11/14 00:20:32;;;;;;;;;;;;;;;;;;2132155;27;19923;-47
2021/11/14 00:21:35;;;;;;;;;;;;;;;;;;2132372;27;20180;-48
2021/11/14 00:22:36;;;;;;;;;;;;;;;;;;2124924;27;20358;-47
2021/11/14 00:23:37;;;;;;;;;;;;;;;;;;2115301;28;19923;-48
2021/11/14 00:24:38;;;;;;;;;;;;;;;;;;2115306;28;20413;-47
2021/11/14 00:25:38;;;;;;;;;;;;;;;;;;2123199;27;19948;-48
2021/11/14 00:26:39;;;;;;;;;;;;;;;;;;2115398;28;19928;-48
2021/11/14 00:27:40;;;;;;;;;;;;;;;;;;2115111;28;19924;-47
2021/11/14 00:28:42;;;;;;;;;;;;;;;;;;2123106;27;19930;-47
2021/11/14 00:29:43;;;;;;;;;;;;;;;;;;2115159;28;20410;-47
2021/11/14 00:30:44;;;;;;;;;;;;;;;;;;2115180;28;20200;-48
2021/11/14 00:31:44;;;;;;;;;;;;;;;;;;2124797;27;19927;-48
2021/11/14 00:32:45;;;;;;;;;;;;;;;;;;2132224;27;19923;-47
2021/11/14 00:33:46;;;;;;;;;;;;;;;;;;2130596;27;19923;-47
2021/11/14 00:34:49;;;;;;;;;;;;;;;;;;2122469;27;19924;-47
2021/11/14 00:35:52;;;;;;;;;;;;;;;;;;2115155;28;20480;-47
2021/11/14 00:36:54;;;;;;;;;;;;;;;;;;2114390;28;20022;-48
2021/11/14 00:37:55;;;;;;;;;;;;;;;;;;2126289;27;19971;-47
2021/11/14 00:38:55;;;;;;;;;;;;;;;;;;2123687;28;19930;-47
2021/11/14 00:39:56;;;;;;;;;;;;;;;;;;2121537;28;19923;-47
2021/11/14 00:40:57;;;;;;;;;;;;;;;;;;2129014;27;19923;-47
2021/11/14 00:41:58;;;;;;;;;;;;;;;;;;2132133;27;19977;-47
2021/11/14 00:42:58;;;;;;;;;;;;;;;;;;2127396;27;19930;-47
2021/11/14 00:43:59;;;;;;;;;;;;;;;;;;2128777;27;19931;-47
2021/11/14 00:45:00;;;;;;;;;;;;;;;;;;2132298;27;19930;-48
2021/11/14 00:46:01;;;;;;;;;;;;;;;;;;2126858;27;19932;-54
2021/11/14 00:47:02;;;;;;;;;;;;;;;;;;2122260;28;19967;-48
2021/11/14 00:48:03;;;;;;;;;;;;;;;;;;2123621;28;20025;-48
2021/11/14 00:49:03;;;;;;;;;;;;;;;;;;2122518;27;19946;-49
2021/11/14 00:50:08;;;;;;;;;;;;;;;;;;2123357;28;19954;-52
2021/11/14 00:51:09;;;;;;;;;;;;;;;;;;2123595;28;20352;-48
2021/11/14 00:52:09;;;;;;;;;;;;;;;;;;2120059;28;19931;-48
2021/11/14 00:53:10;;;;;;;;;;;;;;;;;;2123525;28;19927;-50
2021/11/14 00:54:11;;;;;;;;;;;;;;;;;;2122548;27;19923;-53
2021/11/14 00:55:12;;;;;;;;;;;;;;;;;;2124720;27;19976;-51
2021/11/14 00:56:13;;;;;;;;;;;;;;;;;;2115465;28;20266;-52
2021/11/14 00:57:14;;;;;;;;;;;;;;;;;;2114998;28;20030;-51
2021/11/14 00:58:14;;;;;;;;;;;;;;;;;;2118712;27;20375;-51
2021/11/14 00:59:15;;;;;;;;;;;;;;;;;;2115046;28;19969;-52
2021/11/14 01:00:16;;;;;;;;;;;;;;;;;;2115153;28;19924;-51
2021/11/14 01:01:17;;;;;;;;;;;;;;;;;;2124012;27;19923;-50
2021/11/14 01:02:18;;;;;;;;;;;;;;;;;;2115067;28;19971;-52
2021/11/14 01:03:19;;;;;;;;;;;;;;;;;;2118159;28;19924;-53
2021/11/14 01:04:19;;;;;;;;;;;;;;;;;;2121481;27;20023;-53
2021/11/14 01:05:20;;;;;;;;;;;;;;;;;;2123622;28;19927;-51
2021/11/14 01:06:21;;;;;;;;;;;;;;;;;;2123136;28;20328;-50
2021/11/14 01:07:22;;;;;;;;;;;;;;;;;;2122304;27;20410;-49
2021/11/14 01:08:23;;;;;;;;;;;;;;;;;;2123507;28;19927;-50
2021/11/14 01:09:24;;;;;;;;;;;;;;;;;;2123049;28;19985;-52
2021/11/14 01:10:24;;;;;;;;;;;;;;;;;;2123200;27;19928;-48
2021/11/14 01:11:25;;;;;;;;;;;;;;;;;;2114949;28;20079;-49
2021/11/14 01:12:26;;;;;;;;;;;;;;;;;;2115667;28;19924;-49
2021/11/14 01:13:27;;;;;;;;;;;;;;;;;;2126621;27;19927;-49
2021/11/14 01:14:28;;;;;;;;;;;;;;;;;;2131979;27;20364;-48
2021/11/14 01:15:29;;;;;;;;;;;;;;;;;;2127850;27;19934;-49
2021/11/14 01:16:29;;;;;;;;;;;;;;;;;;2125990;27;19923;-51
2021/11/14 01:17:30;;;;;;;;;;;;;;;;;;2131949;27;19923;-50
2021/11/14 01:18:32;;;;;;;;;;;;;;;;;;2126731;27;19930;-49
2021/11/14 01:19:33;;;;;;;;;;;;;;;;;;2118286;28;20060;-48
2021/11/14 01:20:34;;;;;;;;;;;;;;;;;;2115097;28;19983;-49
2021/11/14 01:21:35;;;;;;;;;;;;;;;;;;2117910;27;19931;-48
2021/11/14 01:22:35;;;;;;;;;;;;;;;;;;2119607;27;19924;-49
2021/11/14 01:23:36;;;;;;;;;;;;;;;;;;2114926;28;20341;-50
2021/11/14 01:24:37;;;;;;;;;;;;;;;;;;2118473;27;20284;-49
2021/11/14 01:25:38;;;;;;;;;;;;;;;;;;2121921;28;19968;-49
2021/11/14 01:26:39;;;;;;;;;;;;;;;;;;2123496;28;19923;-49
2021/11/14 01:27:40;;;;;;;;;;;;;;;;;;2121775;27;19924;-50
2021/11/14 01:28:41;;;;;;;;;;;;;;;;;;2122449;28;20372;-48
2021/11/14 01:29:41;;;;;;;;;;;;;;;;;;2123496;28;19972;-49
2021/11/14 01:30:42;;;;;;;;;;;;;;;;;;2121309;27;20011;-50
2021/11/14 01:31:43;;;;;;;;;;;;;;;;;;2122211;28;19923;-48
2021/11/14 01:32:44;;;;;;;;;;;;;;;;;;2123327;28;19923;-50
2021/11/14 01:33:45;;;;;;;;;;;;;;;;;;2120451;27;19931;-49
2021/11/14 01:34:46;;;;;;;;;;;;;;;;;;2131691;27;19966;-51
2021/11/14 01:35:46;;;;;;;;;;;;;;;;;;2131822;27;19930;-48
2021/11/14 01:36:47;;;;;;;;;;;;;;;;;;2122055;27;19930;-50
2021/11/14 01:37:48;;;;;;;;;;;;;;;;;;2114946;28;20372;-49
2021/11/14 01:38:49;;;;;;;;;;;;;;;;;;2114929;28;20399;-49
2021/11/14 01:39:49;;;;;;;;;;;;;;;;;;2121778;27;19931;-49
2021/11/14 01:40:50;;;;;;;;;;;;;;;;;;2131993;27;19930;-49
2021/11/14 01:41:51;;;;;;;;;;;;;;;;;;2131931;27;20256;-49
2021/11/14 01:42:53;;;;;;;;;;;;;;;;;;2120890;27;20014;-50
2021/11/14 01:43:53;;;;;;;;;;;;;;;;;;2123192;28;20495;-49
2021/11/14 01:44:54;;;;;;;;;;;;;;;;;;2122890;28;19931;-49
2021/11/14 01:45:55;;;;;;;;;;;;;;;;;;2121291;27;19927;-49
2021/11/14 01:46:56;;;;;;;;;;;;;;;;;;2123314;28;19968;-49
2021/11/14 01:47:57;;;;;;;;;;;;;;;;;;2122989;28;20518;-49
2021/11/14 01:48:58;;;;;;;;;;;;;;;;;;2121113;27;19923;-49
2021/11/14 01:49:58;;;;;;;;;;;;;;;;;;2123610;28;19931;-49
2021/11/14 01:50:59;;;;;;;;;;;;;;;;;;2122261;28;20407;-50
2021/11/14 01:52:00;;;;;;;;;;;;;;;;;;2121721;27;19930;-50
2021/11/14 01:53:01;;;;;;;;;;;;;;;;;;2123248;28;20326;-50
2021/11/14 01:54:02;;;;;;;;;;;;;;;;;;2121552;28;20023;-50
2021/11/14 01:55:03;;;;;;;;;;;;;;;;;;2127488;27;19952;-49
2021/11/14 01:56:04;;;;;;;;;;;;;;;;;;2131756;27;19962;-50
2021/11/14 01:57:04;;;;;;;;;;;;;;;;;;2127076;27;19934;-50
2021/11/14 01:58:05;;;;;;;;;;;;;;;;;;2122284;27;19963;-49
2021/11/14 01:59:06;;;;;;;;;;;;;;;;;;2123276;28;19976;-49
2021/11/14 02:00:07;;;;;;;;;;;;;;;;;;2122159;27;19996;-52
2021/11/14 02:01:09;;;;;;;;;;;;;;;;;;2128089;27;20376;-49
2021/11/14 02:02:11;;;;;;;;;;;;;;;;;;2131632;27;19979;-50
2021/11/14 02:03:12;;;;;;;;;;;;;;;;;;2123615;27;19934;-49
2021/11/14 02:04:13;;;;;;;;;;;;;;;;;;2121652;28;19931;-49
2021/11/14 02:05:13;;;;;;;;;;;;;;;;;;2124293;27;19930;-50
2021/11/14 02:06:14;;;;;;;;;;;;;;;;;;2124328;27;19934;-50
2021/11/14 02:07:15;;;;;;;;;;;;;;;;;;2125088;27;19923;-49
2021/11/14 02:08:16;;;;;;;;;;;;;;;;;;2126354;27;19923;-49
2021/11/14 02:09:17;;;;;;;;;;;;;;;;;;2127139;27;20023;-49
2021/11/14 02:10:18;;;;;;;;;;;;;;;;;;2125745;27;19923;-49
2021/11/14 02:11:18;;;;;;;;;;;;;;;;;;2125948;27;19934;-49
2021/11/14 02:12:19;;;;;;;;;;;;;;;;;;2126963;27;19938;-50
2021/11/14 02:13:20;;;;;;;;;;;;;;;;;;2117811;27;20373;-49
2021/11/14 02:14:23;;;;;;;;;;;;;;;;;;2117428;28;19977;-50
2021/11/14 02:15:23;;;;;;;;;;;;;;;;;;2122215;27;20014;-49
2021/11/14 02:16:24;;;;;;;;;;;;;;;;;;2126070;27;20540;-50
2021/11/14 02:17:25;;;;;;;;;;;;;;;;;;2125971;27;20435;-49
2021/11/14 02:18:26;;;;;;;;;;;;;;;;;;2125664;27;20306;-49
2021/11/14 02:19:27;;;;;;;;;;;;;;;;;;2117523;28;20386;-50
2021/11/14 02:20:27;;;;;;;;;;;;;;;;;;2117188;27;19924;-50
2021/11/14 02:21:28;;;;;;;;;;;;;;;;;;2125637;27;19927;-49
2021/11/14 02:22:29;;;;;;;;;;;;;;;;;;2117266;28;19923;-50
2021/11/14 02:23:30;;;;;;;;;;;;;;;;;;2117755;27;19927;-49
2021/11/14 02:24:31;;;;;;;;;;;;;;;;;;2126267;27;19928;-49
2021/11/14 02:25:32;;;;;;;;;;;;;;;;;;2117433;28;19928;-50
2021/11/14 02:26:33;;;;;;;;;;;;;;;;;;2118304;27;19931;-50
2021/11/14 02:27:34;;;;;;;;;;;;;;;;;;2122055;27;20346;-50
2021/11/14 02:28:34;;;;;;;;;;;;;;;;;;2125826;27;19927;-52
2021/11/14 02:29:35;;;;;;;;;;;;;;;;;;2124682;27;19934;-49
2021/11/14 02:30:37;;;;;;;;;;;;;;;;;;2121015;27;19924;-50
2021/11/14 02:31:38;;;;;;;;;;;;;;;;;;2117320;28;19924;-50
2021/11/14 02:32:38;;;;;;;;;;;;;;;;;;2118142;27;19939;-52
2021/11/14 02:33:51;;;;;;;;;;;;;;;;;;2132413;27;19946;-50
2021/11/14 02:34:52;;;;;;;;;;;;;;;;;;2134531;27;19934;-49
2021/11/14 02:35:53;;;;;;;;;;;;;;;;;;2129392;27;20402;-51
2021/11/14 02:36:53;;;;;;;;;;;;;;;;;;2119755;27;19924;-49
2021/11/14 02:37:54;;;;;;;;;;;;;;;;;;2117405;28;19943;-49
2021/11/14 02:38:55;;;;;;;;;;;;;;;;;;2121063;27;20279;-50
2021/11/14 02:39:56;;;;;;;;;;;;;;;;;;2125280;27;19923;-50
2021/11/14 02:40:56;;;;;;;;;;;;;;;;;;2125999;27;19923;-49
2021/11/14 02:41:59;;;;;;;;;;;;;;;;;;2123451;27;19924;-49
2021/11/14 02:43:00;;;;;;;;;;;;;;;;;;2125567;27;19924;-50
2021/11/14 02:44:01;;;;;;;;;;;;;;;;;;2125920;27;19923;-50
2021/11/14 02:45:01;;;;;;;;;;;;;;;;;;2123243;27;19976;-51
2021/11/14 02:46:02;;;;;;;;;;;;;;;;;;2117407;28;19935;-49
2021/11/14 02:47:03;;;;;;;;;;;;;;;;;;2117162;28;20384;-50
2021/11/14 02:48:04;;;;;;;;;;;;;;;;;;2121066;27;19938;-51
2021/11/14 02:49:05;;;;;;;;;;;;;;;;;;2117255;28;20385;-50
2021/11/14 02:50:05;;;;;;;;;;;;;;;;;;2118743;27;20007;-50
2021/11/14 02:51:06;;;;;;;;;;;;;;;;;;2125213;27;20360;-50
2021/11/14 02:52:07;;;;;;;;;;;;;;;;;;2125615;27;19999;-50
2021/11/14 02:53:08;;;;;;;;;;;;;;;;;;2123830;27;20432;-50
2021/11/14 02:54:09;;;;;;;;;;;;;;;;;;2125019;27;20371;-50
2021/11/14 02:55:09;;;;;;;;;;;;;;;;;;2125865;27;19930;-51
2021/11/14 02:56:12;;;;;;;;;;;;;;;;;;2124252;27;20002;-50
2021/11/14 02:57:13;;;;;;;;;;;;;;;;;;2124260;27;20010;-50
2021/11/14 02:58:14;;;;;;;;;;;;;;;;;;2125698;27;20379;-49
2021/11/14 02:59:15;;;;;;;;;;;;;;;;;;2124685;27;19923;-49
2021/11/14 03:00:16;;;;;;;;;;;;;;;;;;2131959;27;20009;-50
2021/11/14 03:01:16;;;;;;;;;;;;;;;;;;2134224;27;19923;-50
2021/11/14 03:02:18;;;;;;;;;;;;;;;;;;2127017;27;19924;-51
2021/11/14 03:03:18;;;;;;;;;;;;;;;;;;2117835;27;19928;-50
2021/11/14 03:04:19;;;;;;;;;;;;;;;;;;2117285;28;20010;-49
2021/11/14 03:05:20;;;;;;;;;;;;;;;;;;2121927;27;19931;-49
2021/11/14 03:06:21;;;;;;;;;;;;;;;;;;2125121;27;20279;-49
2021/11/14 03:07:22;;;;;;;;;;;;;;;;;;2125651;27;19932;-52
2021/11/14 03:08:23;;;;;;;;;;;;;;;;;;2126709;27;19923;-49
2021/11/14 03:09:23;;;;;;;;;;;;;;;;;;2117898;27;20395;-50
2021/11/14 03:10:24;;;;;;;;;;;;;;;;;;2117277;28;19934;-49
2021/11/14 03:11:25;;;;;;;;;;;;;;;;;;2121546;27;19923;-50
2021/11/14 03:12:26;;;;;;;;;;;;;;;;;;2125624;27;19930;-51
2021/11/14 03:13:27;;;;;;;;;;;;;;;;;;2125510;27;19934;-50
2021/11/14 03:14:28;;;;;;;;;;;;;;;;;;2126117;27;19923;-50
2021/11/14 03:15:28;;;;;;;;;;;;;;;;;;2117247;28;19966;-51
2021/11/14 03:16:29;;;;;;;;;;;;;;;;;;2116814;28;19931;-51
2021/11/14 03:17:30;;;;;;;;;;;;;;;;;;2120694;27;19924;-49
2021/11/14 03:18:31;;;;;;;;;;;;;;;;;;2124198;28;20378;-50
2021/11/14 03:19:32;;;;;;;;;;;;;;;;;;2123778;28;19923;-50
2021/11/14 03:20:33;;;;;;;;;;;;;;;;;;2120618;28;19924;-50
2021/11/14 03:21:33;;;;;;;;;;;;;;;;;;2115678;28;19923;-50
2021/11/14 03:22:34;;;;;;;;;;;;;;;;;;2115826;28;20026;-49
2021/11/14 03:23:35;;;;;;;;;;;;;;;;;;2125501;27;19933;-50
2021/11/14 03:24:36;;;;;;;;;;;;;;;;;;2124297;28;19923;-52
2021/11/14 03:25:37;;;;;;;;;;;;;;;;;;2123641;28;20401;-50
2021/11/14 03:26:38;;;;;;;;;;;;;;;;;;2122819;27;19989;-49
2021/11/14 03:27:39;;;;;;;;;;;;;;;;;;2115544;28;20373;-50
2021/11/14 03:28:40;;;;;;;;;;;;;;;;;;2116578;28;20166;-49
2021/11/14 03:29:40;;;;;;;;;;;;;;;;;;2127650;27;19924;-49
2021/11/14 03:30:41;;;;;;;;;;;;;;;;;;2132845;27;19930;-49
2021/11/14 03:31:42;;;;;;;;;;;;;;;;;;2128025;27;20010;-53
2021/11/14 03:32:43;;;;;;;;;;;;;;;;;;2122688;27;19924;-50
2021/11/14 03:33:44;;;;;;;;;;;;;;;;;;2115653;28;19924;-50
2021/11/14 03:34:45;;;;;;;;;;;;;;;;;;2116836;28;19923;-50
2021/11/14 03:35:46;;;;;;;;;;;;;;;;;;2118891;28;19935;-50
2021/11/14 03:36:47;;;;;;;;;;;;;;;;;;2115508;28;19924;-50
2021/11/14 03:37:48;;;;;;;;;;;;;;;;;;2117207;27;19923;-50
2021/11/14 03:38:49;;;;;;;;;;;;;;;;;;2123777;28;19923;-49
2021/11/14 03:39:50;;;;;;;;;;;;;;;;;;2124240;28;20397;-50
2021/11/14 03:40:50;;;;;;;;;;;;;;;;;;2121896;28;19923;-50
2021/11/14 03:41:54;;;;;;;;;;;;;;;;;;2117312;28;19924;-49
2021/11/14 03:42:54;;;;;;;;;;;;;;;;;;2115549;28;20412;-50
2021/11/14 03:43:55;;;;;;;;;;;;;;;;;;2122160;27;19976;-52
2021/11/14 03:44:56;;;;;;;;;;;;;;;;;;2124126;27;20280;-51
2021/11/14 03:45:57;;;;;;;;;;;;;;;;;;2124024;28;19923;-50
2021/11/14 03:46:58;;;;;;;;;;;;;;;;;;2121692;27;19924;-50
2021/11/14 03:47:59;;;;;;;;;;;;;;;;;;2123923;28;19923;-49
2021/11/14 03:48:59;;;;;;;;;;;;;;;;;;2124109;28;19924;-53
2021/11/14 03:50:00;;;;;;;;;;;;;;;;;;2121668;27;20015;-49
2021/11/14 03:51:01;;;;;;;;;;;;;;;;;;2124002;28;19930;-50
2021/11/14 03:52:02;;;;;;;;;;;;;;;;;;2123999;28;20383;-49
2021/11/14 03:53:03;;;;;;;;;;;;;;;;;;2121580;27;20421;-50
2021/11/14 03:54:04;;;;;;;;;;;;;;;;;;2123907;28;19949;-51
2021/11/14 03:55:05;;;;;;;;;;;;;;;;;;2124097;28;19931;-50
2021/11/14 03:56:06;;;;;;;;;;;;;;;;;;2121173;27;19924;-50
2021/11/14 03:57:07;;;;;;;;;;;;;;;;;;2123956;28;20383;-51
2021/11/14 03:58:08;;;;;;;;;;;;;;;;;;2123272;28;19923;-50
2021/11/14 03:59:08;;;;;;;;;;;;;;;;;;2120956;27;20368;-50
2021/11/14 04:00:09;;;;;;;;;;;;;;;;;;2123934;28;19962;-49
2021/11/14 04:01:10;;;;;;;;;;;;;;;;;;2123401;28;20269;-50
2021/11/14 04:02:11;;;;;;;;;;;;;;;;;;2122908;27;20280;-49
2021/11/14 04:03:12;;;;;;;;;;;;;;;;;;2114020;28;19924;-52
2021/11/14 04:04:13;;;;;;;;;;;;;;;;;;2116272;27;19923;-50
2021/11/14 04:05:14;;;;;;;;;;;;;;;;;;2126801;27;19923;-49
2021/11/14 04:06:14;;;;;;;;;;;;;;;;;;2132490;27;19987;-52
2021/11/14 04:07:15;;;;;;;;;;;;;;;;;;2128651;27;20398;-50
2021/11/14 04:08:16;;;;;;;;;;;;;;;;;;2122823;27;19978;-50
2021/11/14 04:09:17;;;;;;;;;;;;;;;;;;2123922;28;19924;-49
2021/11/14 04:10:18;;;;;;;;;;;;;;;;;;2122076;27;19935;-49
2021/11/14 04:11:18;;;;;;;;;;;;;;;;;;2123124;27;20307;-49
2021/11/14 04:12:19;;;;;;;;;;;;;;;;;;2123763;28;19927;-50
2021/11/14 04:13:20;;;;;;;;;;;;;;;;;;2122720;27;19930;-49
2021/11/14 04:14:21;;;;;;;;;;;;;;;;;;2122317;27;19930;-49
2021/11/14 04:15:22;;;;;;;;;;;;;;;;;;2123918;28;19979;-49
2021/11/14 04:16:23;;;;;;;;;;;;;;;;;;2121833;28;19931;-50
2021/11/14 04:17:23;;;;;;;;;;;;;;;;;;2117811;28;19930;-50
2021/11/14 04:18:24;;;;;;;;;;;;;;;;;;2115461;28;19923;-49
2021/11/14 04:19:26;;;;;;;;;;;;;;;;;;2117878;28;19928;-49
2021/11/14 04:20:27;;;;;;;;;;;;;;;;;;2117317;28;20031;-50
2021/11/14 04:21:28;;;;;;;;;;;;;;;;;;2115318;28;19931;-49
2021/11/14 04:22:29;;;;;;;;;;;;;;;;;;2118818;27;19923;-49
2021/11/14 04:23:29;;;;;;;;;;;;;;;;;;2123202;28;19930;-49
2021/11/14 04:24:30;;;;;;;;;;;;;;;;;;2123922;28;19923;-50
2021/11/14 04:25:31;;;;;;;;;;;;;;;;;;2121526;27;19945;-50
2021/11/14 04:26:32;;;;;;;;;;;;;;;;;;2123574;28;19976;-49
2021/11/14 04:27:33;;;;;;;;;;;;;;;;;;2123868;28;19923;-49
2021/11/14 04:28:34;;;;;;;;;;;;;;;;;;2123867;27;19924;-49
2021/11/14 04:29:35;;;;;;;;;;;;;;;;;;2114896;28;19976;-49
2021/11/14 04:30:36;;;;;;;;;;;;;;;;;;2115296;28;20008;-50
2021/11/14 04:31:36;;;;;;;;;;;;;;;;;;2123111;27;20376;-49
2021/11/14 04:32:38;;;;;;;;;;;;;;;;;;2115227;28;19924;-49
2021/11/14 04:33:38;;;;;;;;;;;;;;;;;;2115294;28;19924;-50
2021/11/14 04:34:40;;;;;;;;;;;;;;;;;;2119712;28;20376;-50
2021/11/14 04:35:41;;;;;;;;;;;;;;;;;;2115234;28;20334;-49
2021/11/14 04:36:42;;;;;;;;;;;;;;;;;;2115125;28;19924;-51
2021/11/14 04:37:43;;;;;;;;;;;;;;;;;;2122612;27;19976;-53
2021/11/14 04:38:44;;;;;;;;;;;;;;;;;;2123849;28;19930;-53
2021/11/14 04:39:44;;;;;;;;;;;;;;;;;;2123156;28;20304;-52
2021/11/14 04:40:45;;;;;;;;;;;;;;;;;;2121086;27;20284;-50
2021/11/14 04:41:46;;;;;;;;;;;;;;;;;;2123608;28;20407;-52
2021/11/14 04:42:47;;;;;;;;;;;;;;;;;;2122988;28;20284;-51
2021/11/14 04:43:48;;;;;;;;;;;;;;;;;;2126601;27;19977;-49
2021/11/14 04:44:49;;;;;;;;;;;;;;;;;;2132240;27;20323;-49
2021/11/14 04:45:50;;;;;;;;;;;;;;;;;;2128594;27;19923;-53
2021/11/14 04:46:51;;;;;;;;;;;;;;;;;;2127821;27;20283;-49
2021/11/14 04:47:52;;;;;;;;;;;;;;;;;;2132357;27;20317;-52
2021/11/14 04:48:52;;;;;;;;;;;;;;;;;;2127532;27;19932;-51
2021/11/14 04:49:53;;;;;;;;;;;;;;;;;;2122892;27;19931;-50
2021/11/14 04:50:54;;;;;;;;;;;;;;;;;;2123620;28;20391;-50
2021/11/14 04:51:55;;;;;;;;;;;;;;;;;;2121266;28;20476;-51
2021/11/14 04:52:55;;;;;;;;;;;;;;;;;;2129462;27;19972;-50
2021/11/14 04:53:56;;;;;;;;;;;;;;;;;;2132132;27;19923;-52
2021/11/14 04:54:57;;;;;;;;;;;;;;;;;;2126962;27;19923;-50
2021/11/14 04:55:58;;;;;;;;;;;;;;;;;;2122132;28;19923;-49
2021/11/14 04:56:59;;;;;;;;;;;;;;;;;;2123561;28;19923;-51
2021/11/14 04:58:00;;;;;;;;;;;;;;;;;;2122472;27;19981;-49
2021/11/14 04:59:01;;;;;;;;;;;;;;;;;;2129852;27;20287;-49
2021/11/14 05:00:01;;;;;;;;;;;;;;;;;;2132115;27;19930;-49
2021/11/14 05:01:02;;;;;;;;;;;;;;;;;;2124908;27;19931;-49
2021/11/14 05:02:03;;;;;;;;;;;;;;;;;;2123043;28;19923;-50
2021/11/14 05:03:04;;;;;;;;;;;;;;;;;;2119630;28;19932;-50
2021/11/14 05:04:05;;;;;;;;;;;;;;;;;;2118967;27;19927;-49
2021/11/14 05:05:06;;;;;;;;;;;;;;;;;;2132043;27;19968;-49
2021/11/14 05:06:09;;;;;;;;;;;;;;;;;;2132008;27;19927;-50
2021/11/14 05:07:10;;;;;;;;;;;;;;;;;;2122347;27;19927;-50
2021/11/14 05:08:11;;;;;;;;;;;;;;;;;;2114990;28;19927;-52
2021/11/14 05:09:12;;;;;;;;;;;;;;;;;;2114998;28;20373;-49
2021/11/14 05:10:12;;;;;;;;;;;;;;;;;;2120139;27;19932;-49
2021/11/14 05:11:13;;;;;;;;;;;;;;;;;;2123573;28;19924;-50
2021/11/14 05:12:14;;;;;;;;;;;;;;;;;;2123554;28;19924;-49
2021/11/14 05:13:15;;;;;;;;;;;;;;;;;;2120937;27;19928;-49
2021/11/14 05:14:15;;;;;;;;;;;;;;;;;;2123621;28;19934;-49
2021/11/14 05:15:16;;;;;;;;;;;;;;;;;;2123065;28;19968;-49
2021/11/14 05:16:17;;;;;;;;;;;;;;;;;;2122964;27;19923;-50
2021/11/14 05:17:18;;;;;;;;;;;;;;;;;;2115031;28;19980;-49
2021/11/14 05:18:19;;;;;;;;;;;;;;;;;;2115509;28;20329;-49
2021/11/14 05:19:20;;;;;;;;;;;;;;;;;;2119002;28;20387;-50
2021/11/14 05:20:21;;;;;;;;;;;;;;;;;;2114898;28;19951;-49
2021/11/14 05:21:21;;;;;;;;;;;;;;;;;;2115759;28;19930;-49
2021/11/14 05:22:22;;;;;;;;;;;;;;;;;;2126102;27;19923;-50
2021/11/14 05:23:23;;;;;;;;;;;;;;;;;;2131982;27;19923;-49
2021/11/14 05:24:24;;;;;;;;;;;;;;;;;;2128195;27;19923;-49
2021/11/14 05:25:25;;;;;;;;;;;;;;;;;;2122083;27;20272;-49
2021/11/14 05:26:28;;;;;;;;;;;;;;;;;;2114875;28;19923;-50
2021/11/14 05:27:29;;;;;;;;;;;;;;;;;;2116802;27;20399;-49
2021/11/14 05:28:30;;;;;;;;;;;;;;;;;;2122129;27;19923;-50
2021/11/14 05:29:30;;;;;;;;;;;;;;;;;;2123359;28;19930;-49
2021/11/14 05:30:31;;;;;;;;;;;;;;;;;;2122609;27;19927;-49
2021/11/14 05:31:32;;;;;;;;;;;;;;;;;;2119575;27;20300;-49
2021/11/14 05:32:33;;;;;;;;;;;;;;;;;;2114885;28;19924;-49
2021/11/14 05:33:34;;;;;;;;;;;;;;;;;;2119226;27;20324;-48
2021/11/14 05:34:34;;;;;;;;;;;;;;;;;;2118256;27;20288;-49
2021/11/14 05:35:35;;;;;;;;;;;;;;;;;;2114790;28;19988;-50
2021/11/14 05:36:36;;;;;;;;;;;;;;;;;;2117736;28;19924;-49
2021/11/14 05:37:37;;;;;;;;;;;;;;;;;;2130769;27;19971;-49
2021/11/14 05:38:38;;;;;;;;;;;;;;;;;;2132023;27;19975;-50
2021/11/14 05:39:39;;;;;;;;;;;;;;;;;;2123725;27;20268;-50
2021/11/14 05:40:40;;;;;;;;;;;;;;;;;;2131077;27;20021;-51
2021/11/14 05:41:40;;;;;;;;;;;;;;;;;;2131804;27;19930;-49
2021/11/14 05:42:41;;;;;;;;;;;;;;;;;;2126241;27;19923;-49
2021/11/14 05:43:42;;;;;;;;;;;;;;;;;;2115428;28;19946;-49
2021/11/14 05:44:43;;;;;;;;;;;;;;;;;;2114775;28;19928;-50
2021/11/14 05:45:44;;;;;;;;;;;;;;;;;;2120683;27;19923;-50
2021/11/14 05:46:45;;;;;;;;;;;;;;;;;;2123180;28;19928;-49
2021/11/14 05:47:46;;;;;;;;;;;;;;;;;;2123189;28;19988;-49
2021/11/14 05:48:47;;;;;;;;;;;;;;;;;;2122786;27;19923;-49
2021/11/14 05:49:51;;;;;;;;;;;;;;;;;;2123160;28;20014;-49
2021/11/14 05:50:52;;;;;;;;;;;;;;;;;;2122827;28;19923;-50
2021/11/14 05:51:53;;;;;;;;;;;;;;;;;;2120886;27;19972;-49
2021/11/14 05:52:53;;;;;;;;;;;;;;;;;;2123118;28;19930;-50
2021/11/14 05:53:54;;;;;;;;;;;;;;;;;;2122650;28;19930;-49
2021/11/14 05:54:55;;;;;;;;;;;;;;;;;;2124706;27;20273;-49
2021/11/14 05:55:56;;;;;;;;;;;;;;;;;;2123204;28;19931;-49
2021/11/14 05:56:57;;;;;;;;;;;;;;;;;;2122351;28;19932;-51
2021/11/14 05:58:01;;;;;;;;;;;;;;;;;;2121500;27;19998;-50
2021/11/14 05:59:09;;;;;;;;;;;;;;;;;;2123320;28;20014;-51
2021/11/14 06:00:13;;;;;;;;;;;;;;;;;;2123423;27;19983;-44
2021/11/14 06:01:16;;;;;;;;;;;;;;;;;;2116673;28;19967;-44
2021/11/14 06:02:22;;;;;;;;;;;;;;;;;;2114657;28;20391;-44
2021/11/14 06:03:33;;;;;;;;;;;;;;;;;;2114908;28;19927;-44
2021/11/14 06:04:37;;;;;;;;;;;;;;;;;;2114681;28;19928;-45
2021/11/14 06:05:38;;;;;;;;;;;;;;;;;;2114613;28;20352;-44
2021/11/14 06:06:39;;;;;;;;;;;;;;;;;;2121142;27;19958;-44
2021/11/14 06:07:40;;;;;;;;;;;;;;;;;;2114511;28;19931;-45
2021/11/14 06:08:41;;;;;;;;;;;;;;;;;;2114639;28;20496;-44
2021/11/14 06:09:42;;;;;;;;;;;;;;;;;;2118283;27;19924;-44
2021/11/14 06:10:43;;;;;;;;;;;;;;;;;;2114731;28;19957;-44
2021/11/14 06:11:43;;;;;;;;;;;;;;;;;;2116655;27;20322;-45
2021/11/14 06:12:44;;;;;;;;;;;;;;;;;;2121887;27;20292;-45
2021/11/14 06:13:47;;;;;;;;;;;;;;;;;;2123078;28;19927;-44
2021/11/14 06:14:48;;;;;;;;;;;;;;;;;;2122589;27;20002;-44
2021/11/14 06:15:49;;;;;;;;;;;;;;;;;;2118557;27;19923;-44
2021/11/14 06:16:50;;;;;;;;;;;;;;;;;;2114496;28;19923;-45
2021/11/14 06:17:51;;;;;;;;;;;;;;;;;;2118281;27;19923;-45
2021/11/14 06:18:52;;;;;;;;;;;;;;;;;;2121939;28;19924;-45
2021/11/14 06:19:52;;;;;;;;;;;;;;;;;;2123121;28;20025;-44
2021/11/14 06:20:53;;;;;;;;;;;;;;;;;;2122077;27;19923;-44
2021/11/14 06:21:54;;;;;;;;;;;;;;;;;;2122717;28;20304;-44
2021/11/14 06:22:56;;;;;;;;;;;;;;;;;;2122727;28;19927;-44
2021/11/14 06:23:57;;;;;;;;;;;;;;;;;;2121037;27;19933;-44
2021/11/14 06:24:58;;;;;;;;;;;;;;;;;;2131395;27;19931;-44
2021/11/14 06:25:59;;;;;;;;;;;;;;;;;;2131601;27;19923;-44
2021/11/14 06:27:00;;;;;;;;;;;;;;;;;;2125382;27;20361;-45
2021/11/14 06:28:01;;;;;;;;;;;;;;;;;;2123033;28;19924;-44
2021/11/14 06:29:02;;;;;;;;;;;;;;;;;;2123158;28;20010;-44
2021/11/14 06:30:02;;;;;;;;;;;;;;;;;;2120484;27;20384;-44
2021/11/14 06:31:03;;;;;;;;;;;;;;;;;;2123115;28;19972;-44
2021/11/14 06:32:04;;;;;;;;;;;;;;;;;;2123056;28;20406;-44
2021/11/14 06:33:05;;;;;;;;;;;;;;;;;;2120577;27;20289;-44
2021/11/14 06:34:06;;;;;;;;;;;;;;;;;;2122893;28;19949;-44
2021/11/14 06:35:06;;;;;;;;;;;;;;;;;;2122662;28;19962;-44
2021/11/14 06:36:07;;;;;;;;;;;;;;;;;;2121011;27;20246;-45
2021/11/14 06:37:08;;;;;;;;;;;;;;;;;;2122872;28;20344;-45
2021/11/14 06:38:09;;;;;;;;;;;;;;;;;;2122670;28;19930;-45
2021/11/14 06:39:10;;;;;;;;;;;;;;;;;;2121861;27;20275;-44
2021/11/14 06:40:11;;;;;;;;;;;;;;;;;;2114562;28;19924;-45
2021/11/14 06:41:11;;;;;;;;;;;;;;;;;;2115256;28;20394;-45
2021/11/14 06:42:12;;;;;;;;;;;;;;;;;;2121339;27;19946;-44
2021/11/14 06:43:13;;;;;;;;;;;;;;;;;;2123022;28;19992;-45
2021/11/14 06:44:14;;;;;;;;;;;;;;;;;;2121681;28;19923;-45
2021/11/14 06:45:15;;;;;;;;;;;;;;;;;;2115861;28;19928;-44
2021/11/14 06:46:16;;;;;;;;;;;;;;;;;;2114505;28;19934;-44
2021/11/14 06:47:16;;;;;;;;;;;;;;;;;;2118084;27;19924;-44
2021/11/14 06:48:17;;;;;;;;;;;;;;;;;;2121876;28;19923;-45
2021/11/14 06:49:18;;;;;;;;;;;;;;;;;;2123039;28;19931;-45
2021/11/14 06:50:19;;;;;;;;;;;;;;;;;;2121136;27;19949;-50
2021/11/14 06:51:20;;;;;;;;;;;;;;;;;;2114420;28;19924;-51
2021/11/14 06:52:21;;;;;;;;;;;;;;;;;;2114409;28;19924;-52
2021/11/14 06:53:21;;;;;;;;;;;;;;;;;;2120942;28;19966;-49
2021/11/14 06:54:22;;;;;;;;;;;;;;;;;;2115835;28;20284;-50
2021/11/14 06:55:23;;;;;;;;;;;;;;;;;;2116080;28;19924;-50
2021/11/14 06:56:24;;;;;;;;;;;;;;;;;;2120102;28;19923;-50